Splendora, Texas
Current Conditions -  °F | °C
As of 12:15 PM on Friday 28 Nov 2014 (Local Time) from K6R3 Reporting Station
Clear Clear  
Wind Chill: 69°   Ceiling: Unl
Heat Index: 69°   Visibility: 7mi
Dew Point: 55°   Wind: 9mph
Humidity: 61%   Direction: 170°S
Pressure: 30.28"   Gusts: NA
Location:  30.23°N, 95.16°W
Report Text: K6R3 281815Z AUTO 17008KT 140V200 7SM CLR 20/13 A3028 RMK AO2 T02040126
Loading
Personal Weather Stations






























Interactive Weather Map New forecast layout! Learn more

10-Day Weather Forecast

Advertisements
Track Severe Weather on mobile